Hauptseite
METAR-TAF:

METAR-TAF

Flughäfen :

Sønderborg, Dänemark

Flughafen Sønderborg

Breite: 54-58N, Länge: 009-47E, Höhe: 7 m

Beobachtung

Neuester Wetterbericht von vor 19 Minuten, um 18:50 UTC
Wind 10 kt aus Ost/Südost
Temperatur 6°C
Luftfeuchtigkeit 93%
Luftdruck 1007 hPa
Sichtweite 10 km oder mehr
Durchbrochene Bewölkung in der Höhe von 1100 ft

METAR: EKSB 211850Z 12010KT 9999 BKN011 06/05 Q1007

Zeit: 20:09 (19:09 UTC)

Prognose

Neuester Wetterbericht von vor 1 Stunde und 35 Minuten, um 17:34 UTC
Gültige Prognose vom 21 um 18 UTC bis 21 um 22 UTC
Wind 10 kt aus Südost
Sichtweite: 6000 m
Durchbrochene Bewölkung in der Höhe von 2000 ft
Zeitweise
vom 21 um 18 UTC bis 21 um 22 UTC
Sichtweite: 3000 m
Durchbrochene Bewölkung in der Höhe von 800 ft
Leichtregen

TAF: EKSB 211734Z 2118/2122 14010KT 6000 BKN020 TEMPO 2118/2122 3000 -RA BKN008

Wetterbeobachtungen und Prognosen von mehr als 4000 Flughäfen (METAR und TAF Bericht).

Die verfügbaren Stationen werden durch gelbe und rote Markierungen auf der Karte dargestellt.

Führen Sie die Maus auf sie, um den Namen der Station zu sehen.

Darauf klicken, um die Beobachtung von Wetterbeobachtungen und Prognosen zu sehen.

Um die Karte zu ändern : klicken Sie auf den grünen Tasten mit einem schwarzen Kreuz Zum Vergrößern, auf den grünen Button mit einem Gedankenstrich zu verkleinern, oder auf die grünen Pfeile für benachbarte Karten.


METAR-TAF: